sensor_id;sensor_type;location;lat;lon;timestamp;temperature;humidity
20174;DHT22;10246;50.620;7.232;2023-05-19T00:01:49;11.30;1.00
20174;DHT22;10246;50.620;7.232;2023-05-19T00:04:18;11.20;1.00
20174;DHT22;10246;50.620;7.232;2023-05-19T00:06:49;11.30;1.00
20174;DHT22;10246;50.620;7.232;2023-05-19T00:09:17;11.30;1.00
20174;DHT22;10246;50.620;7.232;2023-05-19T00:11:44;11.20;1.00
20174;DHT22;10246;50.620;7.232;2023-05-19T00:14:11;11.20;1.00
20174;DHT22;10246;50.620;7.232;2023-05-19T00:16:39;11.20;1.00
20174;DHT22;10246;50.620;7.232;2023-05-19T00:19:06;11.00;1.00
20174;DHT22;10246;50.620;7.232;2023-05-19T00:21:36;10.90;1.00
20174;DHT22;10246;50.620;7.232;2023-05-19T00:24:04;10.80;1.00
20174;DHT22;10246;50.620;7.232;2023-05-19T00:26:31;10.70;1.00
20174;DHT22;10246;50.620;7.232;2023-05-19T00:28:57;10.70;1.00
20174;DHT22;10246;50.620;7.232;2023-05-19T00:31:24;10.70;1.00
20174;DHT22;10246;50.620;7.232;2023-05-19T00:33:51;10.70;1.00
20174;DHT22;10246;50.620;7.232;2023-05-19T00:36:18;10.60;1.00
20174;DHT22;10246;50.620;7.232;2023-05-19T00:38:46;10.70;1.00
20174;DHT22;10246;50.620;7.232;2023-05-19T00:41:12;10.60;1.00
20174;DHT22;10246;50.620;7.232;2023-05-19T00:43:39;10.60;1.00
20174;DHT22;10246;50.620;7.232;2023-05-19T00:46:06;10.60;1.00
20174;DHT22;10246;50.620;7.232;2023-05-19T00:48:32;10.60;1.00
20174;DHT22;10246;50.620;7.232;2023-05-19T00:51:00;10.40;1.00
20174;DHT22;10246;50.620;7.232;2023-05-19T00:53:29;10.50;1.00
20174;DHT22;10246;50.620;7.232;2023-05-19T00:55:58;10.40;1.00
20174;DHT22;10246;50.620;7.232;2023-05-19T00:58:26;10.40;1.00
20174;DHT22;10246;50.620;7.232;2023-05-19T01:00:55;10.40;1.00
20174;DHT22;10246;50.620;7.232;2023-05-19T01:03:28;10.40;1.00
20174;DHT22;10246;50.620;7.232;2023-05-19T01:05:55;10.40;1.00
20174;DHT22;10246;50.620;7.232;2023-05-19T01:08:22;10.40;1.00
20174;DHT22;10246;50.620;7.232;2023-05-19T01:10:49;10.30;1.00
20174;DHT22;10246;50.620;7.232;2023-05-19T01:13:17;10.20;1.00
20174;DHT22;10246;50.620;7.232;2023-05-19T01:15:57;10.30;1.00
20174;DHT22;10246;50.620;7.232;2023-05-19T01:18:31;10.30;1.00
20174;DHT22;10246;50.620;7.232;2023-05-19T01:21:17;10.10;1.00
20174;DHT22;10246;50.620;7.232;2023-05-19T01:23:53;10.20;1.00
20174;DHT22;10246;50.620;7.232;2023-05-19T01:26:44;10.00;1.00
20174;DHT22;10246;50.620;7.232;2023-05-19T01:29:41;10.00;1.00
20174;DHT22;10246;50.620;7.232;2023-05-19T01:32:16;10.00;1.00
20174;DHT22;10246;50.620;7.232;2023-05-19T01:34:45;10.00;1.00
20174;DHT22;10246;50.620;7.232;2023-05-19T01:37:15;10.00;1.00
20174;DHT22;10246;50.620;7.232;2023-05-19T01:39:43;9.90;1.00
20174;DHT22;10246;50.620;7.232;2023-05-19T01:42:11;9.90;1.00
20174;DHT22;10246;50.620;7.232;2023-05-19T01:44:39;9.80;1.00
20174;DHT22;10246;50.620;7.232;2023-05-19T01:47:06;9.90;1.00
20174;DHT22;10246;50.620;7.232;2023-05-19T01:49:35;9.90;1.00
20174;DHT22;10246;50.620;7.232;2023-05-19T01:52:02;9.90;1.00
20174;DHT22;10246;50.620;7.232;2023-05-19T01:54:29;9.90;1.00
20174;DHT22;10246;50.620;7.232;2023-05-19T01:57:02;9.90;1.00
20174;DHT22;10246;50.620;7.232;2023-05-19T01:59:41;9.90;1.00
20174;DHT22;10246;50.620;7.232;2023-05-19T02:02:18;9.90;1.00
20174;DHT22;10246;50.620;7.232;2023-05-19T02:04:52;9.80;1.00
20174;DHT22;10246;50.620;7.232;2023-05-19T02:07:25;9.90;1.00
20174;DHT22;10246;50.620;7.232;2023-05-19T02:10:00;9.90;1.00
20174;DHT22;10246;50.620;7.232;2023-05-19T02:12:33;9.90;1.00
20174;DHT22;10246;50.620;7.232;2023-05-19T02:15:04;9.90;1.00
20174;DHT22;10246;50.620;7.232;2023-05-19T02:17:33;9.70;1.00
20174;DHT22;10246;50.620;7.232;2023-05-19T02:20:03;9.60;1.00
20174;DHT22;10246;50.620;7.232;2023-05-19T02:22:31;9.50;1.00
20174;DHT22;10246;50.620;7.232;2023-05-19T02:24:58;9.40;1.00
20174;DHT22;10246;50.620;7.232;2023-05-19T02:27:24;9.30;1.00
20174;DHT22;10246;50.620;7.232;2023-05-19T02:29:52;9.20;1.00
20174;DHT22;10246;50.620;7.232;2023-05-19T02:32:19;9.20;1.00
20174;DHT22;10246;50.620;7.232;2023-05-19T02:34:46;9.30;1.00
20174;DHT22;10246;50.620;7.232;2023-05-19T02:37:15;9.20;1.00
20174;DHT22;10246;50.620;7.232;2023-05-19T02:39:42;9.20;1.00
20174;DHT22;10246;50.620;7.232;2023-05-19T02:42:09;9.20;1.00
20174;DHT22;10246;50.620;7.232;2023-05-19T02:44:36;9.10;1.00
20174;DHT22;10246;50.620;7.232;2023-05-19T02:47:03;9.10;1.00
20174;DHT22;10246;50.620;7.232;2023-05-19T02:49:31;9.10;1.00
20174;DHT22;10246;50.620;7.232;2023-05-19T02:52:00;9.00;1.00
20174;DHT22;10246;50.620;7.232;2023-05-19T02:54:28;9.00;1.00
20174;DHT22;10246;50.620;7.232;2023-05-19T02:56:55;8.90;1.00
20174;DHT22;10246;50.620;7.232;2023-05-19T02:59:21;9.00;1.00
20174;DHT22;10246;50.620;7.232;2023-05-19T03:01:49;8.90;1.00
20174;DHT22;10246;50.620;7.232;2023-05-19T03:04:15;8.90;1.00
20174;DHT22;10246;50.620;7.232;2023-05-19T03:06:44;8.90;1.00
20174;DHT22;10246;50.620;7.232;2023-05-19T03:09:11;8.80;1.00
20174;DHT22;10246;50.620;7.232;2023-05-19T03:11:39;8.80;1.00
20174;DHT22;10246;50.620;7.232;2023-05-19T03:14:06;8.70;1.00
20174;DHT22;10246;50.620;7.232;2023-05-19T03:16:34;8.60;1.00
20174;DHT22;10246;50.620;7.232;2023-05-19T03:19:00;8.60;1.00
20174;DHT22;10246;50.620;7.232;2023-05-19T03:21:27;8.60;1.00
20174;DHT22;10246;50.620;7.232;2023-05-19T03:23:54;8.40;1.00
20174;DHT22;10246;50.620;7.232;2023-05-19T03:26:21;8.40;1.00
20174;DHT22;10246;50.620;7.232;2023-05-19T03:28:50;8.30;1.00
20174;DHT22;10246;50.620;7.232;2023-05-19T03:31:17;8.20;1.00
20174;DHT22;10246;50.620;7.232;2023-05-19T03:33:43;8.30;1.00
20174;DHT22;10246;50.620;7.232;2023-05-19T03:36:10;8.30;1.00
20174;DHT22;10246;50.620;7.232;2023-05-19T03:38:37;8.20;1.60
20174;DHT22;10246;50.620;7.232;2023-05-19T03:41:04;8.20;1.90
20174;DHT22;10246;50.620;7.232;2023-05-19T03:43:30;8.10;1.40
20174;DHT22;10246;50.620;7.232;2023-05-19T03:45:58;8.20;2.10
20174;DHT22;10246;50.620;7.232;2023-05-19T03:48:26;8.20;2.00
20174;DHT22;10246;50.620;7.232;2023-05-19T03:50:53;8.30;1.90
20174;DHT22;10246;50.620;7.232;2023-05-19T03:53:20;8.30;1.60
20174;DHT22;10246;50.620;7.232;2023-05-19T03:55:46;8.20;1.10
20174;DHT22;10246;50.620;7.232;2023-05-19T03:58:14;8.20;1.10
20174;DHT22;10246;50.620;7.232;2023-05-19T04:00:41;8.30;1.40
20174;DHT22;10246;50.620;7.232;2023-05-19T04:03:11;8.30;1.80
20174;DHT22;10246;50.620;7.232;2023-05-19T04:05:37;8.30;2.20
20174;DHT22;10246;50.620;7.232;2023-05-19T04:08:04;8.40;2.20
20174;DHT22;10246;50.620;7.232;2023-05-19T04:10:31;8.40;1.90
20174;DHT22;10246;50.620;7.232;2023-05-19T04:12:58;8.20;1.10
20174;DHT22;10246;50.620;7.232;2023-05-19T04:15:25;8.10;1.50
20174;DHT22;10246;50.620;7.232;2023-05-19T04:17:51;8.10;1.70
20174;DHT22;10246;50.620;7.232;2023-05-19T04:20:19;8.10;1.80
20174;DHT22;10246;50.620;7.232;2023-05-19T04:22:46;8.20;2.40
20174;DHT22;10246;50.620;7.232;2023-05-19T04:25:13;8.20;2.60
20174;DHT22;10246;50.620;7.232;2023-05-19T04:27:40;8.10;2.00
20174;DHT22;10246;50.620;7.232;2023-05-19T04:30:08;8.10;2.30
20174;DHT22;10246;50.620;7.232;2023-05-19T04:32:34;8.10;2.00
20174;DHT22;10246;50.620;7.232;2023-05-19T04:35:02;8.10;2.30
20174;DHT22;10246;50.620;7.232;2023-05-19T04:37:30;8.20;2.30
20174;DHT22;10246;50.620;7.232;2023-05-19T04:39:57;8.10;2.40
20174;DHT22;10246;50.620;7.232;2023-05-19T04:42:23;8.10;2.60
20174;DHT22;10246;50.620;7.232;2023-05-19T04:44:55;7.90;3.50
20174;DHT22;10246;50.620;7.232;2023-05-19T04:47:21;8.00;4.40
20174;DHT22;10246;50.620;7.232;2023-05-19T04:49:52;8.00;3.80
20174;DHT22;10246;50.620;7.232;2023-05-19T04:52:19;8.00;3.80
20174;DHT22;10246;50.620;7.232;2023-05-19T04:54:48;8.00;4.00
20174;DHT22;10246;50.620;7.232;2023-05-19T04:57:15;8.00;4.30
20174;DHT22;10246;50.620;7.232;2023-05-19T04:59:41;8.00;4.60
20174;DHT22;10246;50.620;7.232;2023-05-19T05:02:08;8.10;5.30
20174;DHT22;10246;50.620;7.232;2023-05-19T05:04:35;8.10;5.60
20174;DHT22;10246;50.620;7.232;2023-05-19T05:07:04;8.10;5.90
20174;DHT22;10246;50.620;7.232;2023-05-19T05:09:31;8.10;6.10
20174;DHT22;10246;50.620;7.232;2023-05-19T05:12:00;8.10;6.60
20174;DHT22;10246;50.620;7.232;2023-05-19T05:14:27;8.20;5.80
20174;DHT22;10246;50.620;7.232;2023-05-19T05:16:56;8.10;5.70
20174;DHT22;10246;50.620;7.232;2023-05-19T05:19:23;8.20;6.10
20174;DHT22;10246;50.620;7.232;2023-05-19T05:21:50;8.30;6.10
20174;DHT22;10246;50.620;7.232;2023-05-19T05:24:17;8.40;6.20
20174;DHT22;10246;50.620;7.232;2023-05-19T05:26:44;8.40;6.40
20174;DHT22;10246;50.620;7.232;2023-05-19T05:29:13;8.60;6.10
20174;DHT22;10246;50.620;7.232;2023-05-19T05:31:39;8.70;6.10
20174;DHT22;10246;50.620;7.232;2023-05-19T05:34:06;8.70;6.60
20174;DHT22;10246;50.620;7.232;2023-05-19T05:36:33;8.80;6.80
20174;DHT22;10246;50.620;7.232;2023-05-19T05:39:00;8.90;7.10
20174;DHT22;10246;50.620;7.232;2023-05-19T05:41:28;8.90;6.80
20174;DHT22;10246;50.620;7.232;2023-05-19T05:43:59;9.00;7.00
20174;DHT22;10246;50.620;7.232;2023-05-19T05:46:27;9.20;6.70
20174;DHT22;10246;50.620;7.232;2023-05-19T05:48:54;9.30;6.50
20174;DHT22;10246;50.620;7.232;2023-05-19T05:51:22;9.40;5.30
20174;DHT22;10246;50.620;7.232;2023-05-19T05:53:52;9.50;5.30
20174;DHT22;10246;50.620;7.232;2023-05-19T05:56:19;9.60;4.60
20174;DHT22;10246;50.620;7.232;2023-05-19T05:58:46;9.70;3.90
20174;DHT22;10246;50.620;7.232;2023-05-19T06:01:13;9.90;3.60
20174;DHT22;10246;50.620;7.232;2023-05-19T06:03:43;10.00;3.00
20174;DHT22;10246;50.620;7.232;2023-05-19T06:06:10;10.10;1.80
20174;DHT22;10246;50.620;7.232;2023-05-19T06:08:37;10.20;1.00
20174;DHT22;10246;50.620;7.232;2023-05-19T06:11:04;10.30;1.00
20174;DHT22;10246;50.620;7.232;2023-05-19T06:13:33;10.40;1.00
20174;DHT22;10246;50.620;7.232;2023-05-19T06:16:00;10.60;1.00
20174;DHT22;10246;50.620;7.232;2023-05-19T06:18:27;10.80;1.00
20174;DHT22;10246;50.620;7.232;2023-05-19T06:20:55;10.90;1.00
20174;DHT22;10246;50.620;7.232;2023-05-19T06:23:22;11.00;1.00
20174;DHT22;10246;50.620;7.232;2023-05-19T06:25:49;11.00;1.00
20174;DHT22;10246;50.620;7.232;2023-05-19T06:28:16;11.10;1.00
20174;DHT22;10246;50.620;7.232;2023-05-19T06:30:42;11.20;1.00
20174;DHT22;10246;50.620;7.232;2023-05-19T06:33:09;11.40;1.00
20174;DHT22;10246;50.620;7.232;2023-05-19T06:35:36;11.50;1.00
20174;DHT22;10246;50.620;7.232;2023-05-19T06:38:04;11.70;1.00
20174;DHT22;10246;50.620;7.232;2023-05-19T06:40:31;11.90;1.00
20174;DHT22;10246;50.620;7.232;2023-05-19T06:42:57;11.90;1.00
20174;DHT22;10246;50.620;7.232;2023-05-19T06:45:24;12.00;1.00
20174;DHT22;10246;50.620;7.232;2023-05-19T06:47:51;12.10;1.00
20174;DHT22;10246;50.620;7.232;2023-05-19T06:50:18;12.20;1.00
20174;DHT22;10246;50.620;7.232;2023-05-19T06:52:45;12.30;1.00
20174;DHT22;10246;50.620;7.232;2023-05-19T06:55:13;12.50;1.00
20174;DHT22;10246;50.620;7.232;2023-05-19T06:57:40;12.80;1.00
20174;DHT22;10246;50.620;7.232;2023-05-19T07:00:07;12.80;1.00
20174;DHT22;10246;50.620;7.232;2023-05-19T07:02:36;12.90;1.00
20174;DHT22;10246;50.620;7.232;2023-05-19T07:05:03;13.10;1.00
20174;DHT22;10246;50.620;7.232;2023-05-19T07:07:30;13.20;1.00
20174;DHT22;10246;50.620;7.232;2023-05-19T07:09:57;13.30;1.00
20174;DHT22;10246;50.620;7.232;2023-05-19T07:12:25;13.40;1.00
20174;DHT22;10246;50.620;7.232;2023-05-19T07:14:51;13.50;1.00
20174;DHT22;10246;50.620;7.232;2023-05-19T07:17:18;13.80;1.00
20174;DHT22;10246;50.620;7.232;2023-05-19T07:19:45;13.80;1.00
20174;DHT22;10246;50.620;7.232;2023-05-19T07:22:11;14.00;1.00
20174;DHT22;10246;50.620;7.232;2023-05-19T07:24:39;14.20;1.00
20174;DHT22;10246;50.620;7.232;2023-05-19T07:27:05;14.50;1.00
20174;DHT22;10246;50.620;7.232;2023-05-19T07:29:33;14.70;1.00
20174;DHT22;10246;50.620;7.232;2023-05-19T07:32:00;14.80;1.00
20174;DHT22;10246;50.620;7.232;2023-05-19T07:34:27;15.00;1.00
20174;DHT22;10246;50.620;7.232;2023-05-19T07:36:53;15.10;1.00
20174;DHT22;10246;50.620;7.232;2023-05-19T07:39:20;15.30;1.00
20174;DHT22;10246;50.620;7.232;2023-05-19T07:41:49;15.40;1.00
20174;DHT22;10246;50.620;7.232;2023-05-19T07:44:20;15.40;1.00
20174;DHT22;10246;50.620;7.232;2023-05-19T07:46:48;15.30;1.00
20174;DHT22;10246;50.620;7.232;2023-05-19T07:49:14;15.20;1.00
20174;DHT22;10246;50.620;7.232;2023-05-19T07:51:41;15.40;1.00
20174;DHT22;10246;50.620;7.232;2023-05-19T07:54:08;15.60;1.00
20174;DHT22;10246;50.620;7.232;2023-05-19T07:56:37;15.70;1.00
20174;DHT22;10246;50.620;7.232;2023-05-19T07:59:04;15.70;1.00
20174;DHT22;10246;50.620;7.232;2023-05-19T08:01:32;15.80;1.00
20174;DHT22;10246;50.620;7.232;2023-05-19T08:04:00;16.00;1.00
20174;DHT22;10246;50.620;7.232;2023-05-19T08:06:27;16.00;1.00
20174;DHT22;10246;50.620;7.232;2023-05-19T08:08:54;16.30;1.00
20174;DHT22;10246;50.620;7.232;2023-05-19T08:11:21;16.50;1.00
20174;DHT22;10246;50.620;7.232;2023-05-19T08:13:47;16.60;1.00
20174;DHT22;10246;50.620;7.232;2023-05-19T08:16:14;16.60;1.00
20174;DHT22;10246;50.620;7.232;2023-05-19T08:18:41;16.70;1.00
20174;DHT22;10246;50.620;7.232;2023-05-19T08:21:09;16.70;1.00
20174;DHT22;10246;50.620;7.232;2023-05-19T08:23:36;16.60;1.00
20174;DHT22;10246;50.620;7.232;2023-05-19T08:26:03;16.80;1.00
20174;DHT22;10246;50.620;7.232;2023-05-19T08:28:30;17.10;1.00
20174;DHT22;10246;50.620;7.232;2023-05-19T08:30:56;17.50;1.00
20174;DHT22;10246;50.620;7.232;2023-05-19T08:33:23;17.70;1.00
20174;DHT22;10246;50.620;7.232;2023-05-19T08:35:50;17.80;1.00
20174;DHT22;10246;50.620;7.232;2023-05-19T08:38:18;17.90;1.00
20174;DHT22;10246;50.620;7.232;2023-05-19T08:40:46;18.00;1.00
20174;DHT22;10246;50.620;7.232;2023-05-19T08:43:13;18.10;1.00
20174;DHT22;10246;50.620;7.232;2023-05-19T08:45:42;17.90;1.00
20174;DHT22;10246;50.620;7.232;2023-05-19T08:48:09;17.90;1.00
20174;DHT22;10246;50.620;7.232;2023-05-19T08:50:39;18.00;1.00
20174;DHT22;10246;50.620;7.232;2023-05-19T08:53:12;18.10;1.00
20174;DHT22;10246;50.620;7.232;2023-05-19T08:55:48;18.40;1.00
20174;DHT22;10246;50.620;7.232;2023-05-19T08:58:18;18.50;1.00
20174;DHT22;10246;50.620;7.232;2023-05-19T09:00:46;18.60;1.00
20174;DHT22;10246;50.620;7.232;2023-05-19T09:03:14;18.60;1.00
20174;DHT22;10246;50.620;7.232;2023-05-19T09:05:42;18.70;1.00
20174;DHT22;10246;50.620;7.232;2023-05-19T09:08:10;18.80;1.00
20174;DHT22;10246;50.620;7.232;2023-05-19T09:10:37;19.00;1.00
20174;DHT22;10246;50.620;7.232;2023-05-19T09:13:05;19.20;1.00
20174;DHT22;10246;50.620;7.232;2023-05-19T09:15:33;19.40;1.00
20174;DHT22;10246;50.620;7.232;2023-05-19T09:18:07;19.50;1.00
20174;DHT22;10246;50.620;7.232;2023-05-19T09:20:38;19.50;1.00
20174;DHT22;10246;50.620;7.232;2023-05-19T09:23:06;19.80;1.00
20174;DHT22;10246;50.620;7.232;2023-05-19T09:25:33;19.80;1.00
20174;DHT22;10246;50.620;7.232;2023-05-19T09:28:00;19.60;1.00
20174;DHT22;10246;50.620;7.232;2023-05-19T09:30:28;19.40;1.00
20174;DHT22;10246;50.620;7.232;2023-05-19T09:32:55;19.00;1.00
20174;DHT22;10246;50.620;7.232;2023-05-19T09:35:21;19.00;1.00
20174;DHT22;10246;50.620;7.232;2023-05-19T09:37:48;19.10;1.00
20174;DHT22;10246;50.620;7.232;2023-05-19T09:40:15;19.10;1.00
20174;DHT22;10246;50.620;7.232;2023-05-19T09:42:42;19.30;1.00
20174;DHT22;10246;50.620;7.232;2023-05-19T09:45:09;19.20;1.00
20174;DHT22;10246;50.620;7.232;2023-05-19T09:47:38;18.90;1.00
20174;DHT22;10246;50.620;7.232;2023-05-19T09:50:06;18.90;1.00
20174;DHT22;10246;50.620;7.232;2023-05-19T09:52:34;18.90;1.00
20174;DHT22;10246;50.620;7.232;2023-05-19T09:55:03;18.80;1.00
20174;DHT22;10246;50.620;7.232;2023-05-19T09:57:34;18.70;1.00
20174;DHT22;10246;50.620;7.232;2023-05-19T10:00:03;18.70;1.00
20174;DHT22;10246;50.620;7.232;2023-05-19T10:02:45;18.70;1.00
20174;DHT22;10246;50.620;7.232;2023-05-19T10:05:13;18.60;1.00
20174;DHT22;10246;50.620;7.232;2023-05-19T10:07:42;18.60;1.00
20174;DHT22;10246;50.620;7.232;2023-05-19T10:10:11;18.80;1.00
20174;DHT22;10246;50.620;7.232;2023-05-19T10:12:39;18.90;1.00
20174;DHT22;10246;50.620;7.232;2023-05-19T10:15:08;19.20;1.00
20174;DHT22;10246;50.620;7.232;2023-05-19T10:17:37;19.40;1.00
20174;DHT22;10246;50.620;7.232;2023-05-19T10:20:09;19.80;1.00
20174;DHT22;10246;50.620;7.232;2023-05-19T10:22:37;20.10;1.00
20174;DHT22;10246;50.620;7.232;2023-05-19T10:25:05;20.30;1.00
20174;DHT22;10246;50.620;7.232;2023-05-19T10:27:35;20.40;1.00
20174;DHT22;10246;50.620;7.232;2023-05-19T10:30:06;20.60;1.00
20174;DHT22;10246;50.620;7.232;2023-05-19T10:32:35;20.80;1.00
20174;DHT22;10246;50.620;7.232;2023-05-19T10:35:21;20.80;1.00
20174;DHT22;10246;50.620;7.232;2023-05-19T10:37:56;20.80;1.00
20174;DHT22;10246;50.620;7.232;2023-05-19T10:40:27;20.90;1.00
20174;DHT22;10246;50.620;7.232;2023-05-19T10:43:14;21.00;1.00
20174;DHT22;10246;50.620;7.232;2023-05-19T10:45:44;20.80;1.00
20174;DHT22;10246;50.620;7.232;2023-05-19T10:48:13;20.30;1.00
20174;DHT22;10246;50.620;7.232;2023-05-19T10:50:42;20.50;1.00
20174;DHT22;10246;50.620;7.232;2023-05-19T10:53:13;20.60;1.00
20174;DHT22;10246;50.620;7.232;2023-05-19T10:55:44;20.70;1.00
20174;DHT22;10246;50.620;7.232;2023-05-19T10:58:12;21.00;1.00
20174;DHT22;10246;50.620;7.232;2023-05-19T11:00:39;21.30;1.00
20174;DHT22;10246;50.620;7.232;2023-05-19T11:03:13;21.20;1.00
20174;DHT22;10246;50.620;7.232;2023-05-19T11:05:41;21.20;1.00
20174;DHT22;10246;50.620;7.232;2023-05-19T11:08:10;21.00;1.00
20174;DHT22;10246;50.620;7.232;2023-05-19T11:10:38;21.20;1.00
20174;DHT22;10246;50.620;7.232;2023-05-19T11:13:05;21.50;1.00
20174;DHT22;10246;50.620;7.232;2023-05-19T11:15:34;21.80;1.00
20174;DHT22;10246;50.620;7.232;2023-05-19T11:18:01;21.90;1.00
20174;DHT22;10246;50.620;7.232;2023-05-19T11:20:29;22.00;1.00
20174;DHT22;10246;50.620;7.232;2023-05-19T11:23:07;22.10;1.00
20174;DHT22;10246;50.620;7.232;2023-05-19T11:25:41;22.00;1.00
20174;DHT22;10246;50.620;7.232;2023-05-19T11:28:10;21.70;1.00
20174;DHT22;10246;50.620;7.232;2023-05-19T11:30:38;21.80;1.00
20174;DHT22;10246;50.620;7.232;2023-05-19T11:33:06;21.90;1.00
20174;DHT22;10246;50.620;7.232;2023-05-19T11:35:34;21.90;1.00
20174;DHT22;10246;50.620;7.232;2023-05-19T11:38:00;22.10;1.00
20174;DHT22;10246;50.620;7.232;2023-05-19T11:40:29;22.30;1.00
20174;DHT22;10246;50.620;7.232;2023-05-19T11:42:57;22.00;1.00
20174;DHT22;10246;50.620;7.232;2023-05-19T11:45:24;21.70;1.00
20174;DHT22;10246;50.620;7.232;2023-05-19T11:47:51;21.80;1.00
20174;DHT22;10246;50.620;7.232;2023-05-19T11:50:20;22.10;1.00
20174;DHT22;10246;50.620;7.232;2023-05-19T11:52:47;22.40;1.00
20174;DHT22;10246;50.620;7.232;2023-05-19T11:55:15;22.50;1.00
20174;DHT22;10246;50.620;7.232;2023-05-19T11:57:55;22.80;1.00
20174;DHT22;10246;50.620;7.232;2023-05-19T12:00:23;22.90;1.00
20174;DHT22;10246;50.620;7.232;2023-05-19T12:02:50;22.70;1.00
20174;DHT22;10246;50.620;7.232;2023-05-19T12:05:20;22.30;1.00
20174;DHT22;10246;50.620;7.232;2023-05-19T12:07:48;22.40;1.00
20174;DHT22;10246;50.620;7.232;2023-05-19T12:10:16;22.50;1.00
20174;DHT22;10246;50.620;7.232;2023-05-19T12:12:44;22.70;1.00
20174;DHT22;10246;50.620;7.232;2023-05-19T12:15:13;22.70;1.00
20174;DHT22;10246;50.620;7.232;2023-05-19T12:17:41;22.60;1.00
20174;DHT22;10246;50.620;7.232;2023-05-19T12:20:08;22.50;1.00
20174;DHT22;10246;50.620;7.232;2023-05-19T12:22:35;22.60;1.00
20174;DHT22;10246;50.620;7.232;2023-05-19T12:25:03;22.70;1.00
20174;DHT22;10246;50.620;7.232;2023-05-19T12:27:34;22.90;1.00
20174;DHT22;10246;50.620;7.232;2023-05-19T12:30:02;23.30;1.00
20174;DHT22;10246;50.620;7.232;2023-05-19T12:32:32;23.20;1.00
20174;DHT22;10246;50.620;7.232;2023-05-19T12:35:01;23.10;1.00
20174;DHT22;10246;50.620;7.232;2023-05-19T12:37:28;23.20;1.00
20174;DHT22;10246;50.620;7.232;2023-05-19T12:39:55;23.00;1.00
20174;DHT22;10246;50.620;7.232;2023-05-19T12:42:24;23.20;1.00
20174;DHT22;10246;50.620;7.232;2023-05-19T12:44:55;23.10;1.00
20174;DHT22;10246;50.620;7.232;2023-05-19T12:47:28;23.20;1.00
20174;DHT22;10246;50.620;7.232;2023-05-19T12:50:02;23.50;1.00
20174;DHT22;10246;50.620;7.232;2023-05-19T12:52:30;23.80;1.00
20174;DHT22;10246;50.620;7.232;2023-05-19T12:55:01;24.10;1.00
20174;DHT22;10246;50.620;7.232;2023-05-19T12:57:30;24.20;1.00
20174;DHT22;10246;50.620;7.232;2023-05-19T13:00:01;24.40;1.00
20174;DHT22;10246;50.620;7.232;2023-05-19T13:02:33;24.10;1.00
20174;DHT22;10246;50.620;7.232;2023-05-19T13:05:03;23.70;1.00
20174;DHT22;10246;50.620;7.232;2023-05-19T13:07:30;23.70;1.00
20174;DHT22;10246;50.620;7.232;2023-05-19T13:09:57;23.60;1.00
20174;DHT22;10246;50.620;7.232;2023-05-19T13:12:24;23.90;1.00
20174;DHT22;10246;50.620;7.232;2023-05-19T13:14:50;24.00;1.00
20174;DHT22;10246;50.620;7.232;2023-05-19T13:17:17;24.10;1.00
20174;DHT22;10246;50.620;7.232;2023-05-19T13:19:45;24.30;1.00
20174;DHT22;10246;50.620;7.232;2023-05-19T13:22:13;24.50;1.00
20174;DHT22;10246;50.620;7.232;2023-05-19T13:24:39;24.50;1.00
20174;DHT22;10246;50.620;7.232;2023-05-19T13:27:06;24.40;1.00
20174;DHT22;10246;50.620;7.232;2023-05-19T13:29:33;24.40;1.00
20174;DHT22;10246;50.620;7.232;2023-05-19T13:32:00;24.10;1.00
20174;DHT22;10246;50.620;7.232;2023-05-19T13:34:26;23.70;1.00
20174;DHT22;10246;50.620;7.232;2023-05-19T13:36:53;23.60;1.00
20174;DHT22;10246;50.620;7.232;2023-05-19T13:39:21;23.40;1.00
20174;DHT22;10246;50.620;7.232;2023-05-19T13:41:48;23.40;1.00
20174;DHT22;10246;50.620;7.232;2023-05-19T13:44:14;23.10;1.00
20174;DHT22;10246;50.620;7.232;2023-05-19T13:46:41;23.30;1.00
20174;DHT22;10246;50.620;7.232;2023-05-19T13:49:08;23.60;1.00
20174;DHT22;10246;50.620;7.232;2023-05-19T13:51:34;24.10;1.00
20174;DHT22;10246;50.620;7.232;2023-05-19T13:54:01;24.40;1.00
20174;DHT22;10246;50.620;7.232;2023-05-19T13:56:30;24.50;1.00
20174;DHT22;10246;50.620;7.232;2023-05-19T13:58:57;24.50;1.00
20174;DHT22;10246;50.620;7.232;2023-05-19T14:01:24;24.60;1.00
20174;DHT22;10246;50.620;7.232;2023-05-19T14:03:51;24.60;1.00
20174;DHT22;10246;50.620;7.232;2023-05-19T14:06:17;24.00;1.00
20174;DHT22;10246;50.620;7.232;2023-05-19T14:08:45;24.00;1.00
20174;DHT22;10246;50.620;7.232;2023-05-19T14:11:16;24.20;1.00
20174;DHT22;10246;50.620;7.232;2023-05-19T14:13:46;24.40;1.00
20174;DHT22;10246;50.620;7.232;2023-05-19T14:16:13;24.40;1.00
20174;DHT22;10246;50.620;7.232;2023-05-19T14:18:40;24.60;1.00
20174;DHT22;10246;50.620;7.232;2023-05-19T14:21:07;24.70;1.00
20174;DHT22;10246;50.620;7.232;2023-05-19T14:23:33;24.60;1.00
20174;DHT22;10246;50.620;7.232;2023-05-19T14:26:00;24.60;1.00
20174;DHT22;10246;50.620;7.232;2023-05-19T14:28:27;24.20;1.00
20174;DHT22;10246;50.620;7.232;2023-05-19T14:30:55;24.20;1.00
20174;DHT22;10246;50.620;7.232;2023-05-19T14:33:22;24.20;1.00
20174;DHT22;10246;50.620;7.232;2023-05-19T14:35:49;24.10;1.00
20174;DHT22;10246;50.620;7.232;2023-05-19T14:38:15;24.40;1.00
20174;DHT22;10246;50.620;7.232;2023-05-19T14:40:43;24.60;1.00
20174;DHT22;10246;50.620;7.232;2023-05-19T14:43:09;24.80;1.00
20174;DHT22;10246;50.620;7.232;2023-05-19T14:45:37;24.90;1.00
20174;DHT22;10246;50.620;7.232;2023-05-19T14:48:07;24.90;1.00
20174;DHT22;10246;50.620;7.232;2023-05-19T14:50:35;25.20;1.00
20174;DHT22;10246;50.620;7.232;2023-05-19T14:53:01;25.10;1.00
20174;DHT22;10246;50.620;7.232;2023-05-19T14:55:28;25.30;1.00
20174;DHT22;10246;50.620;7.232;2023-05-19T14:57:55;25.20;1.00
20174;DHT22;10246;50.620;7.232;2023-05-19T15:00:22;25.00;1.00
20174;DHT22;10246;50.620;7.232;2023-05-19T15:02:50;25.00;1.00
20174;DHT22;10246;50.620;7.232;2023-05-19T15:05:18;25.00;1.00
20174;DHT22;10246;50.620;7.232;2023-05-19T15:07:47;25.00;1.00
20174;DHT22;10246;50.620;7.232;2023-05-19T15:10:13;24.90;1.00
20174;DHT22;10246;50.620;7.232;2023-05-19T15:12:41;24.70;1.00
20174;DHT22;10246;50.620;7.232;2023-05-19T15:15:08;24.80;1.00
20174;DHT22;10246;50.620;7.232;2023-05-19T15:17:38;24.80;1.00
20174;DHT22;10246;50.620;7.232;2023-05-19T15:20:05;25.00;1.00
20174;DHT22;10246;50.620;7.232;2023-05-19T15:22:34;25.30;1.00
20174;DHT22;10246;50.620;7.232;2023-05-19T15:25:00;25.70;1.00
20174;DHT22;10246;50.620;7.232;2023-05-19T15:27:27;25.50;1.00
20174;DHT22;10246;50.620;7.232;2023-05-19T15:29:54;25.10;1.00
20174;DHT22;10246;50.620;7.232;2023-05-19T15:32:20;25.00;1.00
20174;DHT22;10246;50.620;7.232;2023-05-19T15:34:47;24.80;1.00
20174;DHT22;10246;50.620;7.232;2023-05-19T15:37:14;24.70;1.00
20174;DHT22;10246;50.620;7.232;2023-05-19T15:39:45;24.50;1.00
20174;DHT22;10246;50.620;7.232;2023-05-19T15:42:11;24.50;1.00
20174;DHT22;10246;50.620;7.232;2023-05-19T15:44:38;24.20;1.00
20174;DHT22;10246;50.620;7.232;2023-05-19T15:47:05;23.90;1.00
20174;DHT22;10246;50.620;7.232;2023-05-19T15:49:31;23.70;1.00
20174;DHT22;10246;50.620;7.232;2023-05-19T15:51:58;23.70;1.00
20174;DHT22;10246;50.620;7.232;2023-05-19T15:54:25;23.80;1.00
20174;DHT22;10246;50.620;7.232;2023-05-19T15:56:53;23.80;1.00